sensor_id;sensor_type;location;lat;lon;timestamp;P1;durP1;ratioP1;P2;durP2;ratioP2
80199;SDS011;69520;44.900;-0.764;2023-05-07T00:00:32;12.40;;;2.60;;
80199;SDS011;69520;44.900;-0.764;2023-05-07T00:02:59;10.03;;;2.70;;
80199;SDS011;69520;44.900;-0.764;2023-05-07T00:05:26;11.63;;;2.70;;
80199;SDS011;69520;44.900;-0.764;2023-05-07T00:07:52;12.00;;;2.53;;
80199;SDS011;69520;44.900;-0.764;2023-05-07T00:10:18;11.68;;;2.70;;
80199;SDS011;69520;44.900;-0.764;2023-05-07T00:12:44;14.38;;;2.85;;
80199;SDS011;69520;44.900;-0.764;2023-05-07T00:15:11;12.97;;;2.63;;
80199;SDS011;69520;44.900;-0.764;2023-05-07T00:17:37;12.45;;;2.53;;
80199;SDS011;69520;44.900;-0.764;2023-05-07T00:20:03;13.82;;;2.75;;
80199;SDS011;69520;44.900;-0.764;2023-05-07T00:22:30;11.05;;;2.83;;
80199;SDS011;69520;44.900;-0.764;2023-05-07T00:24:57;11.98;;;2.80;;
80199;SDS011;69520;44.900;-0.764;2023-05-07T00:27:23;11.80;;;2.90;;
80199;SDS011;69520;44.900;-0.764;2023-05-07T00:29:49;13.13;;;2.42;;
80199;SDS011;69520;44.900;-0.764;2023-05-07T00:32:15;11.80;;;2.50;;
80199;SDS011;69520;44.900;-0.764;2023-05-07T00:34:41;12.63;;;2.63;;
80199;SDS011;69520;44.900;-0.764;2023-05-07T00:37:07;12.80;;;2.60;;
80199;SDS011;69520;44.900;-0.764;2023-05-07T00:39:34;13.40;;;2.83;;
80199;SDS011;69520;44.900;-0.764;2023-05-07T00:42:01;13.20;;;3.33;;
80199;SDS011;69520;44.900;-0.764;2023-05-07T00:44:27;14.57;;;3.80;;
80199;SDS011;69520;44.900;-0.764;2023-05-07T00:46:54;13.77;;;3.70;;
80199;SDS011;69520;44.900;-0.764;2023-05-07T00:49:21;18.48;;;4.68;;
80199;SDS011;69520;44.900;-0.764;2023-05-07T00:51:47;14.13;;;3.30;;
80199;SDS011;69520;44.900;-0.764;2023-05-07T00:54:13;13.93;;;2.95;;
80199;SDS011;69520;44.900;-0.764;2023-05-07T00:56:39;14.43;;;2.63;;
80199;SDS011;69520;44.900;-0.764;2023-05-07T00:59:05;12.98;;;2.67;;
80199;SDS011;69520;44.900;-0.764;2023-05-07T01:01:32;13.52;;;2.42;;
80199;SDS011;69520;44.900;-0.764;2023-05-07T01:03:58;12.20;;;2.77;;
80199;SDS011;69520;44.900;-0.764;2023-05-07T01:06:24;11.18;;;2.65;;
80199;SDS011;69520;44.900;-0.764;2023-05-07T01:08:52;13.60;;;3.00;;
80199;SDS011;69520;44.900;-0.764;2023-05-07T01:11:21;11.43;;;3.03;;
80199;SDS011;69520;44.900;-0.764;2023-05-07T01:13:48;14.57;;;2.90;;
80199;SDS011;69520;44.900;-0.764;2023-05-07T01:16:15;14.30;;;2.70;;
80199;SDS011;69520;44.900;-0.764;2023-05-07T01:18:41;16.35;;;2.92;;
80199;SDS011;69520;44.900;-0.764;2023-05-07T01:21:07;12.68;;;3.15;;
80199;SDS011;69520;44.900;-0.764;2023-05-07T01:23:37;12.27;;;3.08;;
80199;SDS011;69520;44.900;-0.764;2023-05-07T01:26:04;14.88;;;2.90;;
80199;SDS011;69520;44.900;-0.764;2023-05-07T01:28:30;15.60;;;2.93;;
80199;SDS011;69520;44.900;-0.764;2023-05-07T01:30:59;12.82;;;2.80;;
80199;SDS011;69520;44.900;-0.764;2023-05-07T01:33:26;12.23;;;2.92;;
80199;SDS011;69520;44.900;-0.764;2023-05-07T01:35:53;19.48;;;3.75;;
80199;SDS011;69520;44.900;-0.764;2023-05-07T01:38:20;13.05;;;3.00;;
80199;SDS011;69520;44.900;-0.764;2023-05-07T01:40:47;13.83;;;2.50;;
80199;SDS011;69520;44.900;-0.764;2023-05-07T01:43:13;12.23;;;3.28;;
80199;SDS011;69520;44.900;-0.764;2023-05-07T01:45:39;14.88;;;3.30;;
80199;SDS011;69520;44.900;-0.764;2023-05-07T01:48:05;16.05;;;3.63;;
80199;SDS011;69520;44.900;-0.764;2023-05-07T01:50:32;13.00;;;3.13;;
80199;SDS011;69520;44.900;-0.764;2023-05-07T01:52:58;17.37;;;3.33;;
80199;SDS011;69520;44.900;-0.764;2023-05-07T01:55:25;14.82;;;3.35;;
80199;SDS011;69520;44.900;-0.764;2023-05-07T01:57:50;18.02;;;3.42;;
80199;SDS011;69520;44.900;-0.764;2023-05-07T02:00:17;15.25;;;3.60;;
80199;SDS011;69520;44.900;-0.764;2023-05-07T02:02:44;13.32;;;3.30;;
80199;SDS011;69520;44.900;-0.764;2023-05-07T02:05:10;15.53;;;3.93;;
80199;SDS011;69520;44.900;-0.764;2023-05-07T02:07:36;16.27;;;3.22;;
80199;SDS011;69520;44.900;-0.764;2023-05-07T02:10:02;17.65;;;3.50;;
80199;SDS011;69520;44.900;-0.764;2023-05-07T02:12:28;18.48;;;3.35;;
80199;SDS011;69520;44.900;-0.764;2023-05-07T02:14:54;17.05;;;3.10;;
80199;SDS011;69520;44.900;-0.764;2023-05-07T02:17:20;16.87;;;3.17;;
80199;SDS011;69520;44.900;-0.764;2023-05-07T02:19:46;17.40;;;3.40;;
80199;SDS011;69520;44.900;-0.764;2023-05-07T02:22:12;13.02;;;3.42;;
80199;SDS011;69520;44.900;-0.764;2023-05-07T02:24:38;15.60;;;3.53;;
80199;SDS011;69520;44.900;-0.764;2023-05-07T02:27:04;15.20;;;3.20;;
80199;SDS011;69520;44.900;-0.764;2023-05-07T02:29:30;12.57;;;3.10;;
80199;SDS011;69520;44.900;-0.764;2023-05-07T02:31:56;14.52;;;3.38;;
80199;SDS011;69520;44.900;-0.764;2023-05-07T02:34:22;19.00;;;3.03;;
80199;SDS011;69520;44.900;-0.764;2023-05-07T02:36:48;14.02;;;2.97;;
80199;SDS011;69520;44.900;-0.764;2023-05-07T02:39:14;14.85;;;3.38;;
80199;SDS011;69520;44.900;-0.764;2023-05-07T02:41:40;16.87;;;3.50;;
80199;SDS011;69520;44.900;-0.764;2023-05-07T02:44:06;15.05;;;3.25;;
80199;SDS011;69520;44.900;-0.764;2023-05-07T02:46:32;20.17;;;3.05;;
80199;SDS011;69520;44.900;-0.764;2023-05-07T02:48:58;14.23;;;3.35;;
80199;SDS011;69520;44.900;-0.764;2023-05-07T02:51:25;17.48;;;3.67;;
80199;SDS011;69520;44.900;-0.764;2023-05-07T02:53:52;15.40;;;3.50;;
80199;SDS011;69520;44.900;-0.764;2023-05-07T02:56:18;18.58;;;3.60;;
80199;SDS011;69520;44.900;-0.764;2023-05-07T02:58:44;14.43;;;3.65;;
80199;SDS011;69520;44.900;-0.764;2023-05-07T03:01:10;13.00;;;3.17;;
80199;SDS011;69520;44.900;-0.764;2023-05-07T03:03:38;15.32;;;3.15;;
80199;SDS011;69520;44.900;-0.764;2023-05-07T03:06:05;15.87;;;3.20;;
80199;SDS011;69520;44.900;-0.764;2023-05-07T03:08:31;14.05;;;3.28;;
80199;SDS011;69520;44.900;-0.764;2023-05-07T03:10:58;12.95;;;2.90;;
80199;SDS011;69520;44.900;-0.764;2023-05-07T03:13:24;15.93;;;3.05;;
80199;SDS011;69520;44.900;-0.764;2023-05-07T03:15:50;14.18;;;3.47;;
80199;SDS011;69520;44.900;-0.764;2023-05-07T03:18:16;16.53;;;3.60;;
80199;SDS011;69520;44.900;-0.764;2023-05-07T03:20:42;15.85;;;3.17;;
80199;SDS011;69520;44.900;-0.764;2023-05-07T03:23:08;18.85;;;2.88;;
80199;SDS011;69520;44.900;-0.764;2023-05-07T03:25:34;17.08;;;3.70;;
80199;SDS011;69520;44.900;-0.764;2023-05-07T03:28:00;14.35;;;4.07;;
80199;SDS011;69520;44.900;-0.764;2023-05-07T03:30:26;21.23;;;3.77;;
80199;SDS011;69520;44.900;-0.764;2023-05-07T03:32:52;16.88;;;3.60;;
80199;SDS011;69520;44.900;-0.764;2023-05-07T03:35:18;13.60;;;3.22;;
80199;SDS011;69520;44.900;-0.764;2023-05-07T03:37:44;16.63;;;3.22;;
80199;SDS011;69520;44.900;-0.764;2023-05-07T03:40:10;21.70;;;3.85;;
80199;SDS011;69520;44.900;-0.764;2023-05-07T03:42:37;16.40;;;3.47;;
80199;SDS011;69520;44.900;-0.764;2023-05-07T03:45:03;14.70;;;2.83;;
80199;SDS011;69520;44.900;-0.764;2023-05-07T03:47:29;16.15;;;3.00;;
80199;SDS011;69520;44.900;-0.764;2023-05-07T03:49:55;16.73;;;3.53;;
80199;SDS011;69520;44.900;-0.764;2023-05-07T03:52:21;15.88;;;3.33;;
80199;SDS011;69520;44.900;-0.764;2023-05-07T03:54:50;15.67;;;3.50;;
80199;SDS011;69520;44.900;-0.764;2023-05-07T03:57:17;18.13;;;3.65;;
80199;SDS011;69520;44.900;-0.764;2023-05-07T03:59:42;14.82;;;3.13;;
80199;SDS011;69520;44.900;-0.764;2023-05-07T04:02:08;15.20;;;2.92;;
80199;SDS011;69520;44.900;-0.764;2023-05-07T04:04:34;17.40;;;3.67;;
80199;SDS011;69520;44.900;-0.764;2023-05-07T04:07:00;12.77;;;3.30;;
80199;SDS011;69520;44.900;-0.764;2023-05-07T04:09:26;17.98;;;3.55;;
80199;SDS011;69520;44.900;-0.764;2023-05-07T04:11:52;15.23;;;3.25;;
80199;SDS011;69520;44.900;-0.764;2023-05-07T04:14:20;17.05;;;3.47;;
80199;SDS011;69520;44.900;-0.764;2023-05-07T04:16:47;14.65;;;3.13;;
80199;SDS011;69520;44.900;-0.764;2023-05-07T04:19:13;14.30;;;3.07;;
80199;SDS011;69520;44.900;-0.764;2023-05-07T04:21:40;18.42;;;3.70;;
80199;SDS011;69520;44.900;-0.764;2023-05-07T04:24:06;14.68;;;2.97;;
80199;SDS011;69520;44.900;-0.764;2023-05-07T04:26:32;16.33;;;3.10;;
80199;SDS011;69520;44.900;-0.764;2023-05-07T04:28:59;13.63;;;3.45;;
80199;SDS011;69520;44.900;-0.764;2023-05-07T04:31:25;14.30;;;3.37;;
80199;SDS011;69520;44.900;-0.764;2023-05-07T04:33:51;15.60;;;3.30;;
80199;SDS011;69520;44.900;-0.764;2023-05-07T04:36:17;12.02;;;2.92;;
80199;SDS011;69520;44.900;-0.764;2023-05-07T04:38:43;14.40;;;3.17;;
80199;SDS011;69520;44.900;-0.764;2023-05-07T04:41:09;13.80;;;3.05;;
80199;SDS011;69520;44.900;-0.764;2023-05-07T04:43:35;16.93;;;3.60;;
80199;SDS011;69520;44.900;-0.764;2023-05-07T04:46:01;15.32;;;3.00;;
80199;SDS011;69520;44.900;-0.764;2023-05-07T04:48:27;17.52;;;3.17;;
80199;SDS011;69520;44.900;-0.764;2023-05-07T04:50:54;16.48;;;3.30;;
80199;SDS011;69520;44.900;-0.764;2023-05-07T04:53:20;15.27;;;3.10;;
80199;SDS011;69520;44.900;-0.764;2023-05-07T04:55:46;13.80;;;2.67;;
80199;SDS011;69520;44.900;-0.764;2023-05-07T04:58:12;12.82;;;3.60;;
80199;SDS011;69520;44.900;-0.764;2023-05-07T05:00:39;17.75;;;3.20;;
80199;SDS011;69520;44.900;-0.764;2023-05-07T05:03:08;14.70;;;3.17;;
80199;SDS011;69520;44.900;-0.764;2023-05-07T05:05:34;13.40;;;2.70;;
80199;SDS011;69520;44.900;-0.764;2023-05-07T05:08:00;16.33;;;3.50;;
80199;SDS011;69520;44.900;-0.764;2023-05-07T05:10:26;16.83;;;3.47;;
80199;SDS011;69520;44.900;-0.764;2023-05-07T05:12:52;16.63;;;3.20;;
80199;SDS011;69520;44.900;-0.764;2023-05-07T05:15:18;13.10;;;3.10;;
80199;SDS011;69520;44.900;-0.764;2023-05-07T05:17:44;15.63;;;3.65;;
80199;SDS011;69520;44.900;-0.764;2023-05-07T05:20:10;14.83;;;3.30;;
80199;SDS011;69520;44.900;-0.764;2023-05-07T05:22:36;14.88;;;3.63;;
80199;SDS011;69520;44.900;-0.764;2023-05-07T05:25:02;14.13;;;3.20;;
80199;SDS011;69520;44.900;-0.764;2023-05-07T05:27:28;14.18;;;3.17;;
80199;SDS011;69520;44.900;-0.764;2023-05-07T05:29:55;14.38;;;3.20;;
80199;SDS011;69520;44.900;-0.764;2023-05-07T05:32:21;14.07;;;3.53;;
80199;SDS011;69520;44.900;-0.764;2023-05-07T05:34:47;14.65;;;3.72;;
80199;SDS011;69520;44.900;-0.764;2023-05-07T05:37:13;16.27;;;3.65;;
80199;SDS011;69520;44.900;-0.764;2023-05-07T05:39:39;16.17;;;3.50;;
80199;SDS011;69520;44.900;-0.764;2023-05-07T05:42:05;13.40;;;3.45;;
80199;SDS011;69520;44.900;-0.764;2023-05-07T05:44:31;13.13;;;3.03;;
80199;SDS011;69520;44.900;-0.764;2023-05-07T05:46:57;18.60;;;4.15;;
80199;SDS011;69520;44.900;-0.764;2023-05-07T05:49:24;12.95;;;3.33;;
80199;SDS011;69520;44.900;-0.764;2023-05-07T05:51:50;13.38;;;3.33;;
80199;SDS011;69520;44.900;-0.764;2023-05-07T05:54:16;20.13;;;3.95;;
80199;SDS011;69520;44.900;-0.764;2023-05-07T05:56:43;17.03;;;3.80;;
80199;SDS011;69520;44.900;-0.764;2023-05-07T05:59:09;14.80;;;3.60;;
80199;SDS011;69520;44.900;-0.764;2023-05-07T06:01:35;16.02;;;3.70;;
80199;SDS011;69520;44.900;-0.764;2023-05-07T06:04:01;13.35;;;3.55;;
80199;SDS011;69520;44.900;-0.764;2023-05-07T06:06:27;14.05;;;3.33;;
80199;SDS011;69520;44.900;-0.764;2023-05-07T06:08:53;14.20;;;3.50;;
80199;SDS011;69520;44.900;-0.764;2023-05-07T06:11:19;15.30;;;3.35;;
80199;SDS011;69520;44.900;-0.764;2023-05-07T06:13:46;17.15;;;3.33;;
80199;SDS011;69520;44.900;-0.764;2023-05-07T06:16:12;12.50;;;3.20;;
80199;SDS011;69520;44.900;-0.764;2023-05-07T06:18:38;14.38;;;3.90;;
80199;SDS011;69520;44.900;-0.764;2023-05-07T06:21:04;13.20;;;3.90;;
80199;SDS011;69520;44.900;-0.764;2023-05-07T06:23:30;18.02;;;3.53;;
80199;SDS011;69520;44.900;-0.764;2023-05-07T06:25:56;14.95;;;3.80;;
80199;SDS011;69520;44.900;-0.764;2023-05-07T06:28:22;15.32;;;3.17;;
80199;SDS011;69520;44.900;-0.764;2023-05-07T06:30:48;12.07;;;2.97;;
80199;SDS011;69520;44.900;-0.764;2023-05-07T06:33:15;15.07;;;3.63;;
80199;SDS011;69520;44.900;-0.764;2023-05-07T06:35:41;15.27;;;3.42;;
80199;SDS011;69520;44.900;-0.764;2023-05-07T06:38:07;12.85;;;3.72;;
80199;SDS011;69520;44.900;-0.764;2023-05-07T06:40:33;18.80;;;4.07;;
80199;SDS011;69520;44.900;-0.764;2023-05-07T06:42:59;18.63;;;3.95;;
80199;SDS011;69520;44.900;-0.764;2023-05-07T06:45:25;11.67;;;3.33;;
80199;SDS011;69520;44.900;-0.764;2023-05-07T06:47:51;16.13;;;3.25;;
80199;SDS011;69520;44.900;-0.764;2023-05-07T06:50:17;16.25;;;4.03;;
80199;SDS011;69520;44.900;-0.764;2023-05-07T06:52:43;18.20;;;4.32;;
80199;SDS011;69520;44.900;-0.764;2023-05-07T06:55:09;19.23;;;3.80;;
80199;SDS011;69520;44.900;-0.764;2023-05-07T06:57:36;14.90;;;3.27;;
80199;SDS011;69520;44.900;-0.764;2023-05-07T07:00:02;19.42;;;3.83;;
80199;SDS011;69520;44.900;-0.764;2023-05-07T07:02:29;18.60;;;4.10;;
80199;SDS011;69520;44.900;-0.764;2023-05-07T07:04:55;16.77;;;3.65;;
80199;SDS011;69520;44.900;-0.764;2023-05-07T07:07:21;17.52;;;3.45;;
80199;SDS011;69520;44.900;-0.764;2023-05-07T07:09:47;18.33;;;4.30;;
80199;SDS011;69520;44.900;-0.764;2023-05-07T07:12:13;15.63;;;4.00;;
80199;SDS011;69520;44.900;-0.764;2023-05-07T07:14:39;13.38;;;3.60;;
80199;SDS011;69520;44.900;-0.764;2023-05-07T07:17:05;14.50;;;3.50;;
80199;SDS011;69520;44.900;-0.764;2023-05-07T07:19:31;20.73;;;4.30;;
80199;SDS011;69520;44.900;-0.764;2023-05-07T07:21:57;12.90;;;3.03;;
80199;SDS011;69520;44.900;-0.764;2023-05-07T07:24:23;13.13;;;2.90;;
80199;SDS011;69520;44.900;-0.764;2023-05-07T07:26:49;13.27;;;3.05;;
80199;SDS011;69520;44.900;-0.764;2023-05-07T07:29:15;16.35;;;3.92;;
80199;SDS011;69520;44.900;-0.764;2023-05-07T07:31:41;13.48;;;2.90;;
80199;SDS011;69520;44.900;-0.764;2023-05-07T07:34:07;17.23;;;3.70;;
80199;SDS011;69520;44.900;-0.764;2023-05-07T07:36:33;14.93;;;3.13;;
80199;SDS011;69520;44.900;-0.764;2023-05-07T07:38:59;16.17;;;3.20;;
80199;SDS011;69520;44.900;-0.764;2023-05-07T07:41:25;15.93;;;3.60;;
80199;SDS011;69520;44.900;-0.764;2023-05-07T07:43:51;16.58;;;2.95;;
80199;SDS011;69520;44.900;-0.764;2023-05-07T07:46:17;14.93;;;3.50;;
80199;SDS011;69520;44.900;-0.764;2023-05-07T07:48:43;11.95;;;3.17;;
80199;SDS011;69520;44.900;-0.764;2023-05-07T07:51:09;14.52;;;3.05;;
80199;SDS011;69520;44.900;-0.764;2023-05-07T07:53:35;13.60;;;2.75;;
80199;SDS011;69520;44.900;-0.764;2023-05-07T07:56:01;14.15;;;3.35;;
80199;SDS011;69520;44.900;-0.764;2023-05-07T07:58:27;16.70;;;2.80;;
80199;SDS011;69520;44.900;-0.764;2023-05-07T08:00:53;13.13;;;2.83;;
80199;SDS011;69520;44.900;-0.764;2023-05-07T08:03:21;16.92;;;3.00;;
80199;SDS011;69520;44.900;-0.764;2023-05-07T08:05:47;15.15;;;3.20;;
80199;SDS011;69520;44.900;-0.764;2023-05-07T08:08:16;10.98;;;2.20;;
80199;SDS011;69520;44.900;-0.764;2023-05-07T08:10:42;10.50;;;2.40;;
80199;SDS011;69520;44.900;-0.764;2023-05-07T08:13:08;12.13;;;2.80;;
80199;SDS011;69520;44.900;-0.764;2023-05-07T08:15:34;12.15;;;2.72;;
80199;SDS011;69520;44.900;-0.764;2023-05-07T08:18:01;15.63;;;2.55;;
80199;SDS011;69520;44.900;-0.764;2023-05-07T08:20:28;11.07;;;2.50;;
80199;SDS011;69520;44.900;-0.764;2023-05-07T08:22:54;10.90;;;2.13;;
80199;SDS011;69520;44.900;-0.764;2023-05-07T08:25:20;12.07;;;2.30;;
80199;SDS011;69520;44.900;-0.764;2023-05-07T08:27:46;11.55;;;2.10;;
80199;SDS011;69520;44.900;-0.764;2023-05-07T08:30:12;12.20;;;2.22;;
80199;SDS011;69520;44.900;-0.764;2023-05-07T08:32:38;13.10;;;2.30;;
80199;SDS011;69520;44.900;-0.764;2023-05-07T08:35:05;10.97;;;2.13;;
80199;SDS011;69520;44.900;-0.764;2023-05-07T08:37:31;7.05;;;1.65;;
80199;SDS011;69520;44.900;-0.764;2023-05-07T08:39:57;14.23;;;2.20;;
80199;SDS011;69520;44.900;-0.764;2023-05-07T08:42:23;13.60;;;2.30;;
80199;SDS011;69520;44.900;-0.764;2023-05-07T08:44:52;9.40;;;2.00;;
80199;SDS011;69520;44.900;-0.764;2023-05-07T08:47:22;13.70;;;2.07;;
80199;SDS011;69520;44.900;-0.764;2023-05-07T08:49:48;10.65;;;2.00;;
80199;SDS011;69520;44.900;-0.764;2023-05-07T08:52:15;11.05;;;1.90;;
80199;SDS011;69520;44.900;-0.764;2023-05-07T08:54:41;13.70;;;2.08;;
80199;SDS011;69520;44.900;-0.764;2023-05-07T08:57:07;11.45;;;2.20;;
80199;SDS011;69520;44.900;-0.764;2023-05-07T08:59:33;10.67;;;1.70;;
80199;SDS011;69520;44.900;-0.764;2023-05-07T09:02:00;9.95;;;1.90;;
80199;SDS011;69520;44.900;-0.764;2023-05-07T09:04:27;12.00;;;2.10;;
80199;SDS011;69520;44.900;-0.764;2023-05-07T09:06:53;10.52;;;2.30;;
80199;SDS011;69520;44.900;-0.764;2023-05-07T09:09:19;11.95;;;3.00;;
80199;SDS011;69520;44.900;-0.764;2023-05-07T09:11:47;11.47;;;2.20;;
80199;SDS011;69520;44.900;-0.764;2023-05-07T09:14:13;14.02;;;2.72;;
80199;SDS011;69520;44.900;-0.764;2023-05-07T09:16:39;12.80;;;2.20;;
80199;SDS011;69520;44.900;-0.764;2023-05-07T09:19:05;13.57;;;2.00;;
80199;SDS011;69520;44.900;-0.764;2023-05-07T09:21:31;13.95;;;2.90;;
80199;SDS011;69520;44.900;-0.764;2023-05-07T09:23:57;14.90;;;2.73;;
80199;SDS011;69520;44.900;-0.764;2023-05-07T09:26:23;15.73;;;2.70;;
80199;SDS011;69520;44.900;-0.764;2023-05-07T09:28:50;12.90;;;2.47;;
80199;SDS011;69520;44.900;-0.764;2023-05-07T09:31:16;13.55;;;2.47;;
80199;SDS011;69520;44.900;-0.764;2023-05-07T09:33:42;11.57;;;2.65;;
80199;SDS011;69520;44.900;-0.764;2023-05-07T09:36:08;10.53;;;2.00;;
80199;SDS011;69520;44.900;-0.764;2023-05-07T09:38:35;10.88;;;2.10;;
80199;SDS011;69520;44.900;-0.764;2023-05-07T09:41:19;10.00;;;2.10;;
80199;SDS011;69520;44.900;-0.764;2023-05-07T09:43:45;12.07;;;2.38;;
80199;SDS011;69520;44.900;-0.764;2023-05-07T09:46:12;13.52;;;2.03;;
80199;SDS011;69520;44.900;-0.764;2023-05-07T09:48:39;10.33;;;2.13;;
80199;SDS011;69520;44.900;-0.764;2023-05-07T09:51:08;14.02;;;3.17;;
80199;SDS011;69520;44.900;-0.764;2023-05-07T09:53:36;13.88;;;2.17;;
80199;SDS011;69520;44.900;-0.764;2023-05-07T09:56:02;14.55;;;2.30;;
80199;SDS011;69520;44.900;-0.764;2023-05-07T09:58:28;13.65;;;2.70;;
80199;SDS011;69520;44.900;-0.764;2023-05-07T10:00:55;12.80;;;2.70;;
80199;SDS011;69520;44.900;-0.764;2023-05-07T10:03:22;11.80;;;2.25;;
80199;SDS011;69520;44.900;-0.764;2023-05-07T10:05:49;14.30;;;2.78;;
80199;SDS011;69520;44.900;-0.764;2023-05-07T10:08:16;11.27;;;2.35;;
80199;SDS011;69520;44.900;-0.764;2023-05-07T10:10:42;13.32;;;2.60;;
80199;SDS011;69520;44.900;-0.764;2023-05-07T10:13:08;12.60;;;2.63;;
80199;SDS011;69520;44.900;-0.764;2023-05-07T10:15:36;13.02;;;2.22;;
80199;SDS011;69520;44.900;-0.764;2023-05-07T10:18:03;16.25;;;2.40;;
80199;SDS011;69520;44.900;-0.764;2023-05-07T10:20:29;15.38;;;2.97;;
80199;SDS011;69520;44.900;-0.764;2023-05-07T10:22:55;16.30;;;2.97;;
80199;SDS011;69520;44.900;-0.764;2023-05-07T10:25:25;12.00;;;3.20;;
80199;SDS011;69520;44.900;-0.764;2023-05-07T10:27:54;12.07;;;2.50;;
80199;SDS011;69520;44.900;-0.764;2023-05-07T10:33:06;9.23;;;1.75;;
80199;SDS011;69520;44.900;-0.764;2023-05-07T10:35:38;12.20;;;2.30;;
80199;SDS011;69520;44.900;-0.764;2023-05-07T10:38:05;10.83;;;2.30;;
80199;SDS011;69520;44.900;-0.764;2023-05-07T10:40:32;10.98;;;2.38;;
80199;SDS011;69520;44.900;-0.764;2023-05-07T10:42:59;13.52;;;3.35;;
80199;SDS011;69520;44.900;-0.764;2023-05-07T10:45:25;14.13;;;2.45;;
80199;SDS011;69520;44.900;-0.764;2023-05-07T10:50:36;13.47;;;2.37;;
80199;SDS011;69520;44.900;-0.764;2023-05-07T10:55:44;15.27;;;2.95;;
80199;SDS011;69520;44.900;-0.764;2023-05-07T10:58:25;15.05;;;2.42;;
80199;SDS011;69520;44.900;-0.764;2023-05-07T11:01:01;13.75;;;2.30;;
80199;SDS011;69520;44.900;-0.764;2023-05-07T11:03:27;13.27;;;2.37;;
80199;SDS011;69520;44.900;-0.764;2023-05-07T11:06:13;12.88;;;2.28;;
80199;SDS011;69520;44.900;-0.764;2023-05-07T11:08:53;12.38;;;2.22;;
80199;SDS011;69520;44.900;-0.764;2023-05-07T11:11:20;12.05;;;2.33;;
80199;SDS011;69520;44.900;-0.764;2023-05-07T11:14:05;11.75;;;2.50;;
80199;SDS011;69520;44.900;-0.764;2023-05-07T11:16:31;10.53;;;2.30;;
80199;SDS011;69520;44.900;-0.764;2023-05-07T11:18:58;11.27;;;2.17;;
80199;SDS011;69520;44.900;-0.764;2023-05-07T11:21:34;12.50;;;2.00;;
80199;SDS011;69520;44.900;-0.764;2023-05-07T11:24:01;11.63;;;1.80;;
80199;SDS011;69520;44.900;-0.764;2023-05-07T11:26:28;10.75;;;2.10;;
80199;SDS011;69520;44.900;-0.764;2023-05-07T11:28:55;15.03;;;2.73;;
80199;SDS011;69520;44.900;-0.764;2023-05-07T11:31:22;12.73;;;2.00;;
80199;SDS011;69520;44.900;-0.764;2023-05-07T11:33:49;12.18;;;2.55;;
80199;SDS011;69520;44.900;-0.764;2023-05-07T11:36:15;10.90;;;2.20;;
80199;SDS011;69520;44.900;-0.764;2023-05-07T11:38:41;11.55;;;2.42;;
80199;SDS011;69520;44.900;-0.764;2023-05-07T11:41:07;12.17;;;2.03;;
80199;SDS011;69520;44.900;-0.764;2023-05-07T11:43:34;11.93;;;2.38;;
80199;SDS011;69520;44.900;-0.764;2023-05-07T11:46:10;11.38;;;2.10;;
80199;SDS011;69520;44.900;-0.764;2023-05-07T11:48:36;10.98;;;2.53;;
80199;SDS011;69520;44.900;-0.764;2023-05-07T11:51:03;10.00;;;2.17;;
80199;SDS011;69520;44.900;-0.764;2023-05-07T11:53:36;12.30;;;2.67;;
80199;SDS011;69520;44.900;-0.764;2023-05-07T11:56:06;12.32;;;2.20;;
80199;SDS011;69520;44.900;-0.764;2023-05-07T11:58:33;12.73;;;2.10;;
80199;SDS011;69520;44.900;-0.764;2023-05-07T12:00:59;14.38;;;3.08;;
80199;SDS011;69520;44.900;-0.764;2023-05-07T12:03:25;11.68;;;2.45;;
80199;SDS011;69520;44.900;-0.764;2023-05-07T12:05:51;11.50;;;2.10;;
80199;SDS011;69520;44.900;-0.764;2023-05-07T12:08:17;10.75;;;2.20;;
80199;SDS011;69520;44.900;-0.764;2023-05-07T12:10:44;12.05;;;2.33;;
80199;SDS011;69520;44.900;-0.764;2023-05-07T12:13:14;9.45;;;1.60;;
80199;SDS011;69520;44.900;-0.764;2023-05-07T12:15:40;12.18;;;1.80;;
80199;SDS011;69520;44.900;-0.764;2023-05-07T12:18:06;11.07;;;2.13;;
80199;SDS011;69520;44.900;-0.764;2023-05-07T12:20:33;12.90;;;2.28;;
80199;SDS011;69520;44.900;-0.764;2023-05-07T12:23:00;11.48;;;1.70;;
80199;SDS011;69520;44.900;-0.764;2023-05-07T12:25:26;11.45;;;2.35;;
80199;SDS011;69520;44.900;-0.764;2023-05-07T12:27:52;12.98;;;2.00;;
80199;SDS011;69520;44.900;-0.764;2023-05-07T12:30:18;11.50;;;2.20;;
80199;SDS011;69520;44.900;-0.764;2023-05-07T12:32:45;11.32;;;2.45;;
80199;SDS011;69520;44.900;-0.764;2023-05-07T12:35:11;11.13;;;2.28;;
80199;SDS011;69520;44.900;-0.764;2023-05-07T12:37:37;9.30;;;2.35;;
80199;SDS011;69520;44.900;-0.764;2023-05-07T12:40:12;12.02;;;2.47;;
80199;SDS011;69520;44.900;-0.764;2023-05-07T12:42:39;12.37;;;1.97;;
80199;SDS011;69520;44.900;-0.764;2023-05-07T12:47:34;12.05;;;1.95;;
80199;SDS011;69520;44.900;-0.764;2023-05-07T12:50:02;11.95;;;2.17;;
80199;SDS011;69520;44.900;-0.764;2023-05-07T12:52:28;11.00;;;2.20;;
80199;SDS011;69520;44.900;-0.764;2023-05-07T12:54:55;12.30;;;1.70;;
80199;SDS011;69520;44.900;-0.764;2023-05-07T12:57:21;11.73;;;2.20;;
80199;SDS011;69520;44.900;-0.764;2023-05-07T12:59:47;11.15;;;1.80;;
80199;SDS011;69520;44.900;-0.764;2023-05-07T13:02:12;11.05;;;2.13;;
80199;SDS011;69520;44.900;-0.764;2023-05-07T13:04:38;10.20;;;1.80;;
80199;SDS011;69520;44.900;-0.764;2023-05-07T13:07:04;10.20;;;2.23;;
80199;SDS011;69520;44.900;-0.764;2023-05-07T13:09:30;12.07;;;1.67;;
80199;SDS011;69520;44.900;-0.764;2023-05-07T13:11:57;9.90;;;2.03;;
80199;SDS011;69520;44.900;-0.764;2023-05-07T13:14:26;12.95;;;2.20;;
80199;SDS011;69520;44.900;-0.764;2023-05-07T13:16:52;13.23;;;3.67;;
80199;SDS011;69520;44.900;-0.764;2023-05-07T13:19:18;14.33;;;2.50;;
80199;SDS011;69520;44.900;-0.764;2023-05-07T13:21:44;10.23;;;2.03;;
80199;SDS011;69520;44.900;-0.764;2023-05-07T13:24:10;14.25;;;2.25;;
80199;SDS011;69520;44.900;-0.764;2023-05-07T13:26:36;9.75;;;1.70;;
80199;SDS011;69520;44.900;-0.764;2023-05-07T13:29:02;9.43;;;1.90;;
80199;SDS011;69520;44.900;-0.764;2023-05-07T13:31:28;8.27;;;1.47;;
80199;SDS011;69520;44.900;-0.764;2023-05-07T13:33:54;12.30;;;1.92;;
80199;SDS011;69520;44.900;-0.764;2023-05-07T13:36:21;11.35;;;2.40;;
80199;SDS011;69520;44.900;-0.764;2023-05-07T13:38:47;9.55;;;1.98;;
80199;SDS011;69520;44.900;-0.764;2023-05-07T13:41:13;9.90;;;1.83;;
80199;SDS011;69520;44.900;-0.764;2023-05-07T13:43:39;12.37;;;2.20;;
80199;SDS011;69520;44.900;-0.764;2023-05-07T13:46:05;10.50;;;1.85;;
80199;SDS011;69520;44.900;-0.764;2023-05-07T13:48:31;11.77;;;2.63;;
80199;SDS011;69520;44.900;-0.764;2023-05-07T13:50:57;14.73;;;2.28;;
80199;SDS011;69520;44.900;-0.764;2023-05-07T13:53:23;11.20;;;2.15;;
80199;SDS011;69520;44.900;-0.764;2023-05-07T13:55:49;11.80;;;2.13;;
80199;SDS011;69520;44.900;-0.764;2023-05-07T13:58:15;11.45;;;2.05;;
80199;SDS011;69520;44.900;-0.764;2023-05-07T14:00:41;10.82;;;1.95;;
80199;SDS011;69520;44.900;-0.764;2023-05-07T14:03:08;10.18;;;1.98;;
80199;SDS011;69520;44.900;-0.764;2023-05-07T14:05:35;14.60;;;2.38;;
80199;SDS011;69520;44.900;-0.764;2023-05-07T14:08:01;11.47;;;2.50;;
80199;SDS011;69520;44.900;-0.764;2023-05-07T14:10:28;13.43;;;2.60;;
80199;SDS011;69520;44.900;-0.764;2023-05-07T14:12:55;15.02;;;2.08;;
80199;SDS011;69520;44.900;-0.764;2023-05-07T14:15:21;12.15;;;2.45;;
80199;SDS011;69520;44.900;-0.764;2023-05-07T14:17:47;10.10;;;1.95;;
80199;SDS011;69520;44.900;-0.764;2023-05-07T14:20:13;12.77;;;2.23;;
80199;SDS011;69520;44.900;-0.764;2023-05-07T14:22:39;12.80;;;2.40;;
80199;SDS011;69520;44.900;-0.764;2023-05-07T14:25:05;11.90;;;2.13;;
80199;SDS011;69520;44.900;-0.764;2023-05-07T14:27:32;11.35;;;2.20;;